Time;durP1;ratioP1;P1;durP2;ratioP2;P2;SDS_P1;SDS_P2;PMS_P1;PMS_P2;Temp;Humidity;BMP_temperature;BMP_pressure;BME280_temperature;BME280_humidity;BME280_pressure;Samples;Min_cycle;Max_cycle;Signal;HPM_P1;HPM_P2
2023/04/28 00:01:23;;;;;;;7.65;5.57;;;7.10;99.90;;;;;;5089832;28;20597;-76
2023/04/28 00:03:49;;;;;;;9.23;6.50;;;7.20;99.90;;;;;;5071645;28;20388;-78
2023/04/28 00:06:14;;;;;;;8.00;6.00;;;6.90;99.90;;;;;;5075677;28;20039;-76
2023/04/28 00:08:40;;;;;;;9.05;6.20;;;7.10;99.90;;;;;;5105205;28;20089;-81
2023/04/28 00:11:10;;;;;;;7.60;5.32;;;6.90;99.90;;;;;;5071990;28;20050;-77
2023/04/28 00:13:36;;;;;;;7.38;5.68;;;6.80;99.90;;;;;;5088739;28;20055;-78
2023/04/28 00:16:01;;;;;;;10.48;6.57;;;6.90;99.90;;;;;;5085582;28;20073;-78
2023/04/28 00:18:27;;;;;;;9.10;6.38;;;6.80;99.90;;;;;;5100691;28;20121;-79
2023/04/28 00:20:54;;;;;;;12.55;7.45;;;6.90;99.90;;;;;;5084195;28;20116;-76
2023/04/28 00:23:20;;;;;;;9.43;6.22;;;6.80;99.90;;;;;;5060990;28;20043;-76
2023/04/28 00:25:54;;;;;;;7.57;5.78;;;6.70;99.90;;;;;;5101530;28;20067;-76
2023/04/28 00:28:20;;;;;;;8.18;6.05;;;6.90;99.90;;;;;;5070016;28;20127;-76
2023/04/28 00:30:46;;;;;;;12.18;6.95;;;6.90;99.90;;;;;;5083939;28;20118;-76
2023/04/28 00:33:12;;;;;;;8.85;5.80;;;6.60;99.90;;;;;;5086325;28;20039;-76
2023/04/28 00:35:41;;;;;;;9.15;5.65;;;6.80;99.90;;;;;;5088692;28;20122;-78
2023/04/28 00:38:07;;;;;;;7.00;5.15;;;6.80;99.90;;;;;;5098776;28;20036;-79
2023/04/28 00:40:37;;;;;;;12.00;6.97;;;6.60;99.90;;;;;;5078979;28;20442;-78
2023/04/28 00:43:03;;;;;;;10.52;7.38;;;6.80;99.90;;;;;;5089184;28;20093;-79
2023/04/28 00:45:30;;;;;;;7.95;6.35;;;6.60;99.90;;;;;;5115461;27;20031;-80
2023/04/28 00:47:56;;;;;;;9.30;6.57;;;6.50;99.90;;;;;;5072839;28;20035;-79
2023/04/28 00:50:23;;;;;;;8.48;6.22;;;6.80;99.90;;;;;;5051467;28;20036;-77
2023/04/28 00:52:50;;;;;;;10.32;7.03;;;6.60;99.90;;;;;;5092630;28;20144;-75
2023/04/28 00:55:16;;;;;;;7.95;5.78;;;6.60;99.90;;;;;;5053465;28;20040;-79
2023/04/28 00:57:42;;;;;;;8.90;6.40;;;6.60;99.90;;;;;;5078676;28;20080;-80
2023/04/28 01:00:09;;;;;;;10.35;6.28;;;6.70;99.90;;;;;;5068847;28;20394;-79
2023/04/28 01:02:35;;;;;;;12.02;6.90;;;6.50;99.90;;;;;;5066594;28;20396;-78
2023/04/28 01:05:02;;;;;;;7.13;5.25;;;6.50;99.90;;;;;;5077638;27;20115;-78
2023/04/28 01:07:28;;;;;;;8.15;6.15;;;6.70;99.90;;;;;;5091023;28;20078;-82
2023/04/28 01:09:54;;;;;;;7.63;5.65;;;6.70;99.90;;;;;;5083670;28;20436;-80
2023/04/28 01:12:20;;;;;;;13.30;6.88;;;6.60;99.90;;;;;;5076884;28;20058;-76
2023/04/28 01:14:47;;;;;;;9.43;5.90;;;6.40;99.90;;;;;;5055514;28;20042;-75
2023/04/28 01:17:13;;;;;;;9.15;6.07;;;6.40;99.90;;;;;;5102314;28;20075;-79
2023/04/28 01:19:38;;;;;;;8.57;6.50;;;6.70;99.90;;;;;;5067748;28;20035;-75
2023/04/28 01:22:04;;;;;;;11.73;6.70;;;6.60;99.90;;;;;;5100031;28;20039;-77
2023/04/28 01:24:30;;;;;;;9.38;6.88;;;6.70;99.90;;;;;;5083377;27;20047;-78
2023/04/28 01:26:56;;;;;;;10.38;7.32;;;6.50;99.90;;;;;;5085430;28;20082;-83
2023/04/28 01:29:21;;;;;;;8.82;6.38;;;6.70;99.90;;;;;;5086723;28;20126;-78
2023/04/28 01:31:47;;;;;;;7.93;6.20;;;6.70;99.90;;;;;;5088388;28;20047;-78
2023/04/28 01:34:13;;;;;;;10.32;6.93;;;6.50;99.90;;;;;;5082813;28;20134;-76
2023/04/28 01:36:38;;;;;;;7.82;5.80;;;6.60;99.90;;;;;;5084487;28;20130;-78
2023/04/28 01:39:04;;;;;;;9.10;6.72;;;6.70;99.90;;;;;;5070125;28;20070;-79
2023/04/28 01:41:33;;;;;;;11.30;6.25;;;6.50;99.90;;;;;;5084054;28;20050;-77
2023/04/28 01:43:59;;;;;;;10.65;6.72;;;6.80;99.90;;;;;;5081992;28;20105;-76
2023/04/28 01:46:25;;;;;;;10.52;6.65;;;6.60;99.90;;;;;;5087090;28;20040;-76
2023/04/28 01:48:50;;;;;;;8.88;6.80;;;6.70;99.90;;;;;;5104167;28;20108;-79
2023/04/28 01:51:16;;;;;;;11.48;7.03;;;6.80;99.90;;;;;;5082133;28;20023;-76
2023/04/28 01:53:42;;;;;;;9.20;7.03;;;6.90;99.90;;;;;;5077518;28;20040;-78
2023/04/28 01:56:08;;;;;;;12.27;7.20;;;6.90;99.90;;;;;;5099136;28;20047;-78
2023/04/28 01:58:33;;;;;;;9.65;6.85;;;6.90;99.90;;;;;;5073513;28;20706;-78
2023/04/28 02:00:59;;;;;;;7.93;5.43;;;6.90;99.90;;;;;;5071086;28;20044;-80
2023/04/28 02:03:26;;;;;;;10.55;7.32;;;7.00;99.90;;;;;;5071913;28;20430;-79
2023/04/28 02:05:52;;;;;;;6.88;5.00;;;7.00;99.90;;;;;;5103048;28;20048;-75
2023/04/28 02:08:18;;;;;;;9.00;5.93;;;7.00;99.90;;;;;;5082249;28;20137;-81
2023/04/28 02:10:44;;;;;;;8.65;6.32;;;7.10;99.90;;;;;;5071539;28;20036;-78
2023/04/28 02:13:10;;;;;;;11.25;7.75;;;7.20;99.90;;;;;;5081824;28;20050;-78
2023/04/28 02:15:41;;;;;;;12.48;7.97;;;7.20;99.90;;;;;;5070389;28;20847;-75
2023/04/28 02:18:07;;;;;;;11.73;6.88;;;7.10;99.90;;;;;;5060140;28;20078;-80
2023/04/28 02:20:32;;;;;;;13.00;8.18;;;7.30;99.90;;;;;;5088430;28;20090;-78
2023/04/28 02:22:58;;;;;;;11.65;7.78;;;7.00;99.90;;;;;;5097738;28;20039;-75
2023/04/28 02:25:24;;;;;;;13.00;8.65;;;7.10;99.90;;;;;;5081724;28;20059;-78
2023/04/28 02:27:49;;;;;;;13.38;8.70;;;7.30;99.90;;;;;;5104959;27;20042;-76
2023/04/28 02:30:15;;;;;;;14.57;9.68;;;7.40;99.90;;;;;;5083138;28;20035;-76
2023/04/28 02:32:41;;;;;;;12.70;8.88;;;7.40;99.90;;;;;;5088297;28;20058;-80
2023/04/28 02:35:07;;;;;;;12.20;7.20;;;7.40;99.90;;;;;;5100412;28;20046;-76
2023/04/28 02:37:35;;;;;;;16.35;9.77;;;7.50;99.90;;;;;;5072994;28;20368;-78
2023/04/28 02:40:01;;;;;;;15.18;9.30;;;7.20;99.90;;;;;;5087139;28;20051;-81
2023/04/28 02:42:27;;;;;;;13.95;8.30;;;7.30;99.90;;;;;;5063744;28;20078;-80
2023/04/28 02:44:52;;;;;;;14.38;8.27;;;7.40;99.90;;;;;;5081820;28;20031;-80
2023/04/28 02:47:18;;;;;;;11.32;7.05;;;7.50;99.90;;;;;;5086215;28;20114;-81
2023/04/28 02:49:44;;;;;;;15.60;9.55;;;7.70;99.90;;;;;;5088569;28;20105;-80
2023/04/28 02:52:17;;;;;;;15.23;9.40;;;7.40;99.90;;;;;;5086592;28;20035;-74
2023/04/28 02:54:47;;;;;;;15.38;9.02;;;7.60;99.90;;;;;;5088222;28;20066;-80
2023/04/28 02:57:13;;;;;;;13.75;8.60;;;7.40;99.90;;;;;;5100543;28;20039;-80
2023/04/28 02:59:38;;;;;;;17.23;9.32;;;7.50;99.90;;;;;;5079531;28;20356;-75
2023/04/28 03:02:04;;;;;;;15.50;9.65;;;7.60;99.90;;;;;;5104055;28;20043;-77
2023/04/28 03:04:36;;;;;;;16.45;10.82;;;7.70;99.90;;;;;;5090120;27;20040;-77
2023/04/28 03:07:02;;;;;;;17.33;10.60;;;7.70;99.90;;;;;;5102220;28;20217;-77
2023/04/28 03:09:27;;;;;;;17.25;11.15;;;7.50;99.90;;;;;;5103129;28;20543;-75
2023/04/28 03:11:53;;;;;;;20.25;10.30;;;7.70;99.90;;;;;;5096607;28;20454;-75
2023/04/28 03:14:19;;;;;;;17.02;11.23;;;7.70;99.90;;;;;;5088673;27;20031;-77
2023/04/28 03:16:45;;;;;;;18.65;11.75;;;7.70;99.90;;;;;;5105348;28;20514;-76
2023/04/28 03:19:10;;;;;;;18.20;11.25;;;7.60;99.90;;;;;;5094791;27;20036;-78
2023/04/28 03:21:36;;;;;;;17.30;11.48;;;7.40;99.90;;;;;;5099996;27;20039;-74
2023/04/28 03:24:01;;;;;;;18.92;11.80;;;7.70;99.90;;;;;;5086613;28;20051;-79
2023/04/28 03:26:27;;;;;;;18.15;11.52;;;7.50;99.90;;;;;;5079926;28;20497;-77
2023/04/28 03:28:53;;;;;;;20.75;12.05;;;7.60;99.90;;;;;;5036988;28;20085;-78
2023/04/28 03:31:19;;;;;;;15.40;9.77;;;7.60;99.90;;;;;;5053550;28;20076;-80
2023/04/28 03:33:45;;;;;;;19.73;11.82;;;7.40;99.90;;;;;;5067874;28;20576;-83
2023/04/28 03:36:11;;;;;;;17.92;11.48;;;7.70;99.90;;;;;;5071192;28;20614;-74
2023/04/28 03:38:37;;;;;;;16.63;10.43;;;7.40;99.90;;;;;;5081530;28;20040;-78
2023/04/28 03:41:03;;;;;;;20.10;11.32;;;7.40;99.90;;;;;;5048061;28;20033;-80
2023/04/28 03:43:29;;;;;;;17.77;10.80;;;7.60;99.90;;;;;;5079891;28;20458;-80
2023/04/28 03:45:54;;;;;;;14.85;8.02;;;7.30;99.90;;;;;;5071800;28;20070;-74
2023/04/28 03:48:20;;;;;;;16.55;10.02;;;7.40;99.90;;;;;;5104856;28;20051;-75
2023/04/28 03:50:46;;;;;;;18.50;10.73;;;7.40;99.90;;;;;;5086971;28;20486;-77
2023/04/28 03:53:11;;;;;;;21.52;10.98;;;7.50;99.90;;;;;;5059483;28;20131;-78
2023/04/28 03:55:37;;;;;;;18.60;11.40;;;7.40;99.90;;;;;;5070346;28;20469;-82
2023/04/28 03:58:03;;;;;;;16.42;8.90;;;7.80;99.90;;;;;;5083534;28;20036;-76
2023/04/28 04:00:29;;;;;;;18.20;12.25;;;7.60;99.90;;;;;;5065701;28;20047;-81
2023/04/28 04:02:54;;;;;;;19.08;11.93;;;7.30;99.90;;;;;;5052942;28;20032;-80
2023/04/28 04:05:20;;;;;;;18.48;10.98;;;7.50;99.90;;;;;;5087548;28;20040;-78
2023/04/28 04:07:46;;;;;;;19.40;11.98;;;7.30;99.90;;;;;;5101455;28;21763;-77
2023/04/28 04:10:11;;;;;;;18.90;10.90;;;7.20;99.90;;;;;;5053212;28;20036;-76
2023/04/28 04:12:37;;;;;;;19.95;12.25;;;7.40;99.90;;;;;;5083216;28;20672;-76
2023/04/28 04:15:03;;;;;;;17.80;9.80;;;7.30;99.90;;;;;;5081259;28;20028;-77
2023/04/28 04:17:29;;;;;;;15.25;8.27;;;7.30;99.90;;;;;;5065403;28;20047;-80
2023/04/28 04:19:54;;;;;;;17.77;10.85;;;7.30;99.90;;;;;;5064177;28;20048;-78
2023/04/28 04:22:20;;;;;;;15.32;10.15;;;7.30;99.90;;;;;;5064606;28;20050;-78
2023/04/28 04:24:46;;;;;;;16.90;11.05;;;7.40;99.90;;;;;;5050420;28;20027;-74
2023/04/28 04:27:12;;;;;;;17.42;11.25;;;7.40;99.90;;;;;;5051763;28;20579;-77
2023/04/28 04:29:37;;;;;;;17.25;10.32;;;7.50;99.90;;;;;;5096863;28;20040;-77
2023/04/28 04:32:03;;;;;;;13.23;7.97;;;7.50;99.90;;;;;;5068847;28;20074;-80
2023/04/28 04:34:29;;;;;;;17.92;10.05;;;7.30;99.90;;;;;;5067851;28;20051;-78
2023/04/28 04:36:54;;;;;;;16.70;10.73;;;7.30;99.90;;;;;;5079683;28;20059;-74
2023/04/28 04:39:20;;;;;;;15.75;10.57;;;7.60;99.90;;;;;;5059471;28;20044;-78
2023/04/28 04:41:46;;;;;;;18.13;11.48;;;7.50;99.90;;;;;;5065660;28;20036;-76
2023/04/28 04:44:11;;;;;;;16.38;10.15;;;7.30;99.90;;;;;;5079265;28;20044;-75
2023/04/28 04:46:37;;;;;;;17.30;11.07;;;7.30;99.90;;;;;;5047820;28;20044;-76
2023/04/28 04:49:03;;;;;;;13.10;8.95;;;7.30;99.90;;;;;;5083804;28;20036;-76
2023/04/28 04:51:28;;;;;;;18.83;11.68;;;7.40;99.90;;;;;;5096083;28;20123;-74
2023/04/28 04:53:54;;;;;;;18.40;11.25;;;7.60;99.90;;;;;;5083560;28;20051;-76
2023/04/28 04:56:20;;;;;;;19.20;11.95;;;7.60;99.90;;;;;;5049548;28;20094;-78
2023/04/28 04:58:45;;;;;;;19.60;12.48;;;7.40;99.90;;;;;;5059968;28;20055;-77
2023/04/28 05:01:11;;;;;;;18.02;11.65;;;7.70;99.90;;;;;;5067682;28;20551;-80
2023/04/28 05:03:37;;;;;;;16.30;9.65;;;7.70;99.90;;;;;;5056131;28;20047;-78
2023/04/28 05:06:03;;;;;;;16.92;11.38;;;7.60;99.90;;;;;;5059527;28;20048;-75
2023/04/28 05:08:28;;;;;;;17.08;11.20;;;7.50;99.90;;;;;;5083106;28;20032;-79
2023/04/28 05:10:54;;;;;;;16.40;9.93;;;7.60;99.90;;;;;;5069116;28;20044;-79
2023/04/28 05:13:20;;;;;;;16.63;11.02;;;7.40;99.90;;;;;;5116607;27;20131;-76
2023/04/28 05:15:46;;;;;;;15.18;10.13;;;7.80;99.90;;;;;;5055652;28;20036;-74
2023/04/28 05:18:12;;;;;;;14.80;9.35;;;7.70;99.90;;;;;;5049036;28;20156;-77
2023/04/28 05:20:38;;;;;;;16.25;9.77;;;7.50;99.90;;;;;;5101096;28;20046;-75
2023/04/28 05:23:05;;;;;;;16.48;10.35;;;7.60;99.90;;;;;;5080168;28;20480;-77
2023/04/28 05:25:31;;;;;;;16.10;11.02;;;7.90;99.90;;;;;;5079435;28;20098;-76
2023/04/28 05:27:57;;;;;;;14.70;9.48;;;7.60;99.90;;;;;;5063411;28;20424;-78
2023/04/28 05:30:22;;;;;;;13.02;7.63;;;7.70;99.90;;;;;;5083941;28;20393;-79
2023/04/28 05:32:48;;;;;;;15.07;10.10;;;7.90;99.90;;;;;;5102328;28;20036;-75
2023/04/28 05:35:14;;;;;;;14.25;9.40;;;7.90;99.90;;;;;;5073528;28;20048;-74
2023/04/28 05:37:42;;;;;;;14.73;7.43;;;8.00;99.90;;;;;;5081348;28;20040;-77
2023/04/28 05:40:08;;;;;;;13.85;9.40;;;7.70;99.90;;;;;;5071889;28;20082;-77
2023/04/28 05:42:34;;;;;;;16.42;10.25;;;8.00;99.90;;;;;;5053786;28;20040;-76
2023/04/28 05:44:59;;;;;;;15.52;8.77;;;7.70;99.90;;;;;;5082743;28;20047;-80
2023/04/28 05:47:25;;;;;;;14.88;9.70;;;7.80;99.90;;;;;;5087173;28;20038;-76
2023/04/28 05:49:51;;;;;;;13.93;7.78;;;7.80;99.90;;;;;;5084686;28;20442;-77
2023/04/28 05:52:17;;;;;;;15.43;8.82;;;7.80;99.90;;;;;;5081479;28;20047;-77
2023/04/28 05:54:42;;;;;;;13.45;8.07;;;8.00;99.90;;;;;;5067746;28;20515;-78
2023/04/28 05:57:08;;;;;;;13.98;8.88;;;8.00;99.90;;;;;;5050905;28;20040;-81
2023/04/28 05:59:34;;;;;;;18.75;9.32;;;8.00;99.90;;;;;;5069553;28;20079;-75
2023/04/28 06:01:59;;;;;;;16.27;11.35;;;8.10;99.90;;;;;;5088526;28;20079;-80
2023/04/28 06:04:25;;;;;;;11.60;8.13;;;8.20;99.90;;;;;;5078762;28;20032;-77
2023/04/28 06:06:51;;;;;;;14.23;8.85;;;8.10;99.90;;;;;;5054747;28;20046;-81
2023/04/28 06:09:17;;;;;;;15.35;8.18;;;8.20;99.90;;;;;;5085716;28;20383;-77
2023/04/28 06:11:43;;;;;;;10.82;6.80;;;8.00;99.90;;;;;;5055579;28;20059;-77
2023/04/28 06:14:08;;;;;;;15.15;8.63;;;8.00;99.90;;;;;;5088204;28;20036;-78
2023/04/28 06:16:34;;;;;;;11.75;8.27;;;8.00;99.90;;;;;;5091078;28;20044;-77
2023/04/28 06:19:00;;;;;;;15.13;9.52;;;8.10;99.90;;;;;;5073736;28;20392;-79
2023/04/28 06:21:27;;;;;;;14.20;8.98;;;8.20;99.90;;;;;;5064746;28;20040;-77
2023/04/28 06:23:53;;;;;;;18.23;11.32;;;8.40;99.90;;;;;;5066401;28;20033;-76
2023/04/28 06:26:19;;;;;;;13.50;9.68;;;8.30;99.90;;;;;;5078509;28;20043;-81
2023/04/28 06:28:45;;;;;;;15.32;8.80;;;8.40;99.90;;;;;;5059056;28;20047;-78
2023/04/28 06:31:11;;;;;;;13.45;8.15;;;8.40;99.90;;;;;;5088421;28;20047;-78
2023/04/28 06:33:36;;;;;;;15.07;9.35;;;8.40;99.90;;;;;;5058459;28;20040;-77
2023/04/28 06:36:03;;;;;;;14.00;9.57;;;8.50;99.90;;;;;;5056870;28;20047;-77
2023/04/28 06:38:28;;;;;;;9.43;6.30;;;8.30;99.90;;;;;;5059430;28;20442;-81
2023/04/28 06:40:54;;;;;;;16.08;9.63;;;8.30;99.90;;;;;;5058797;28;20032;-79
2023/04/28 06:43:20;;;;;;;13.10;7.47;;;8.40;99.90;;;;;;5088342;28;20157;-78
2023/04/28 06:45:45;;;;;;;10.07;6.00;;;8.70;99.90;;;;;;5055758;28;20050;-81
2023/04/28 06:48:11;;;;;;;13.57;9.13;;;8.50;99.90;;;;;;5063032;28;20043;-78
2023/04/28 06:50:37;;;;;;;11.80;8.60;;;8.50;99.90;;;;;;5056213;28;20055;-75
2023/04/28 06:53:03;;;;;;;15.13;8.23;;;8.70;99.90;;;;;;5089365;28;20907;-80
2023/04/28 06:55:28;;;;;;;14.13;8.85;;;8.80;99.90;;;;;;5052086;28;20385;-77
2023/04/28 06:57:54;;;;;;;15.90;9.25;;;8.70;99.90;;;;;;5069327;28;20095;-78
2023/04/28 07:00:20;;;;;;;11.85;7.80;;;9.00;99.90;;;;;;5086552;28;20047;-81
2023/04/28 07:02:45;;;;;;;13.05;8.98;;;8.90;99.90;;;;;;5069434;28;20479;-78
2023/04/28 07:05:11;;;;;;;11.32;8.40;;;9.10;99.90;;;;;;5090080;28;20035;-78
2023/04/28 07:07:37;;;;;;;15.27;9.23;;;9.20;99.90;;;;;;5072988;28;20118;-79
2023/04/28 07:10:04;;;;;;;15.48;9.43;;;9.40;99.90;;;;;;5069865;28;20550;-78
2023/04/28 07:12:30;;;;;;;13.00;8.45;;;9.40;99.90;;;;;;5086785;28;20044;-76
2023/04/28 07:14:55;;;;;;;12.95;8.55;;;9.40;99.90;;;;;;5071862;28;20131;-78
2023/04/28 07:17:21;;;;;;;12.90;8.80;;;9.30;99.90;;;;;;5056501;28;20496;-78
2023/04/28 07:19:49;;;;;;;11.68;8.60;;;9.40;99.90;;;;;;5087569;28;20036;-74
2023/04/28 07:22:15;;;;;;;14.25;8.85;;;9.50;99.90;;;;;;5070913;28;20590;-75
2023/04/28 07:24:41;;;;;;;9.38;6.55;;;9.60;99.90;;;;;;5055506;28;20043;-75
2023/04/28 07:27:07;;;;;;;10.10;7.15;;;9.70;99.90;;;;;;5071417;28;20040;-77
2023/04/28 07:29:33;;;;;;;13.75;9.70;;;9.40;99.90;;;;;;5068858;28;20124;-76
2023/04/28 07:32:09;;;;;;;8.88;5.90;;;9.60;99.90;;;;;;5088842;28;20190;-76
2023/04/28 07:34:35;;;;;;;14.57;8.85;;;9.60;99.90;;;;;;5069668;28;20048;-75
2023/04/28 07:37:02;;;;;;;11.88;8.90;;;9.70;99.90;;;;;;5073690;28;20368;-80
2023/04/28 07:39:29;;;;;;;11.52;8.57;;;9.60;99.90;;;;;;5090038;28;20040;-77
2023/04/28 07:41:56;;;;;;;12.63;8.90;;;9.80;99.90;;;;;;5085719;28;20097;-76
2023/04/28 07:44:22;;;;;;;11.73;9.02;;;9.80;99.90;;;;;;5054761;28;20028;-76
2023/04/28 07:46:48;;;;;;;11.88;8.75;;;9.90;99.90;;;;;;5053279;28;20491;-78
2023/04/28 07:49:14;;;;;;;13.38;8.32;;;9.80;99.90;;;;;;5054743;28;20492;-79
2023/04/28 07:51:40;;;;;;;12.50;8.88;;;9.80;99.90;;;;;;5086732;28;20043;-74
2023/04/28 07:54:05;;;;;;;13.30;9.10;;;9.80;99.90;;;;;;5076457;28;20118;-78
2023/04/28 07:56:31;;;;;;;14.57;8.18;;;9.90;99.90;;;;;;5087619;28;20088;-80
2023/04/28 07:58:57;;;;;;;13.52;8.90;;;9.90;99.90;;;;;;5054725;28;20395;-78
2023/04/28 08:01:22;;;;;;;9.18;6.13;;;9.90;99.90;;;;;;5061679;28;20590;-77
2023/04/28 08:03:48;;;;;;;10.18;6.45;;;10.00;99.90;;;;;;5061464;28;20032;-78
2023/04/28 08:06:14;;;;;;;12.65;9.02;;;9.70;99.90;;;;;;5042256;28;20036;-77
2023/04/28 08:08:40;;;;;;;11.30;8.10;;;10.00;99.90;;;;;;5082819;28;20031;-76
2023/04/28 08:11:07;;;;;;;13.00;8.85;;;9.90;99.90;;;;;;5087903;28;20646;-77
2023/04/28 08:13:33;;;;;;;13.38;8.35;;;10.10;99.90;;;;;;5092034;28;20624;-80
2023/04/28 08:15:59;;;;;;;11.50;7.55;;;10.20;99.90;;;;;;5065729;28;20131;-79
2023/04/28 08:18:26;;;;;;;13.10;9.07;;;10.20;99.90;;;;;;5068112;28;20046;-78
2023/04/28 08:20:51;;;;;;;12.25;9.35;;;10.20;99.90;;;;;;5063440;28;20075;-78
2023/04/28 08:23:17;;;;;;;11.77;9.05;;;10.20;99.90;;;;;;5065200;28;20163;-77
2023/04/28 08:25:43;;;;;;;11.55;8.35;;;10.40;99.90;;;;;;5052921;28;20055;-78
2023/04/28 08:28:09;;;;;;;14.40;9.40;;;10.40;99.90;;;;;;5053704;28;20044;-77
2023/04/28 08:30:34;;;;;;;13.02;9.00;;;10.30;99.90;;;;;;5055144;28;20143;-78
2023/04/28 08:33:00;;;;;;;15.20;9.35;;;10.40;99.90;;;;;;5047102;28;20045;-78
2023/04/28 08:35:26;;;;;;;9.63;6.97;;;10.40;99.90;;;;;;5066978;28;20664;-74
2023/04/28 08:37:52;;;;;;;11.98;7.82;;;10.40;99.90;;;;;;5061117;28;20473;-78
2023/04/28 08:40:23;;;;;;;12.00;8.60;;;10.50;99.90;;;;;;5066501;28;20040;-76
2023/04/28 08:42:49;;;;;;;14.57;8.77;;;10.50;99.90;;;;;;5063213;28;20090;-77
2023/04/28 08:45:15;;;;;;;12.57;9.05;;;10.50;99.90;;;;;;5070406;28;20040;-77
2023/04/28 08:47:46;;;;;;;13.57;9.45;;;10.50;99.90;;;;;;5049673;28;20032;-77
2023/04/28 08:50:12;;;;;;;12.93;8.32;;;10.50;99.90;;;;;;5057842;28;20673;-76
2023/04/28 08:52:40;;;;;;;12.88;7.68;;;10.80;99.90;;;;;;5069754;28;20040;-76
2023/04/28 08:55:10;;;;;;;10.40;7.30;;;10.70;99.90;;;;;;5070245;28;20115;-76
2023/04/28 08:57:44;;;;;;;14.25;9.05;;;10.70;99.90;;;;;;5069010;28;20043;-75
2023/04/28 09:00:11;;;;;;;11.27;8.47;;;10.60;99.90;;;;;;5081922;28;20044;-76
2023/04/28 09:02:40;;;;;;;14.23;9.38;;;10.70;99.90;;;;;;5080577;28;20355;-78
2023/04/28 09:05:07;;;;;;;11.85;7.57;;;10.70;99.90;;;;;;5066953;28;20056;-75
2023/04/28 09:07:33;;;;;;;13.18;8.82;;;10.70;99.90;;;;;;5069095;28;20039;-77
2023/04/28 09:10:25;;;;;;;11.25;8.02;;;10.60;99.90;;;;;;5071333;28;20040;-80
2023/04/28 09:12:53;;;;;;;11.77;7.57;;;10.80;99.90;;;;;;5099789;28;20377;-78
2023/04/28 09:15:33;;;;;;;14.57;9.43;;;10.70;99.90;;;;;;5051418;28;20587;-79
2023/04/28 09:18:00;;;;;;;12.43;9.07;;;11.10;99.90;;;;;;5069294;28;20123;-79
2023/04/28 09:20:27;;;;;;;10.90;8.70;;;11.00;99.90;;;;;;5052174;28;20040;-83
2023/04/28 09:22:55;;;;;;;11.68;8.93;;;11.10;99.90;;;;;;5045222;28;20051;-82
2023/04/28 09:25:22;;;;;;;12.40;9.40;;;11.30;99.90;;;;;;5067412;28;20507;-81
2023/04/28 09:27:51;;;;;;;11.75;8.85;;;11.50;99.90;;;;;;5083640;28;20046;-78
2023/04/28 09:30:19;;;;;;;16.67;8.25;;;11.50;99.90;;;;;;5067549;28;20032;-81
2023/04/28 09:32:44;;;;;;;16.27;9.43;;;11.40;99.90;;;;;;5050299;28;20425;-81
2023/04/28 09:35:10;;;;;;;12.85;8.15;;;11.60;99.90;;;;;;5070211;28;20128;-83
2023/04/28 09:37:36;;;;;;;12.85;8.45;;;11.90;99.90;;;;;;5061759;28;20466;-84
2023/04/28 09:40:08;;;;;;;11.65;8.18;;;11.90;99.90;;;;;;5050411;28;20668;-81
2023/04/28 09:42:36;;;;;;;12.70;7.72;;;12.20;99.90;;;;;;5081823;28;20126;-81
2023/04/28 09:45:07;;;;;;;9.55;7.78;;;12.20;99.90;;;;;;5084019;28;20488;-79
2023/04/28 09:47:36;;;;;;;10.23;7.38;;;12.00;99.90;;;;;;5101732;28;20038;-81
2023/04/28 09:50:04;;;;;;;13.82;8.50;;;12.40;99.90;;;;;;5099172;28;20044;-81
2023/04/28 09:52:32;;;;;;;11.10;7.95;;;12.90;99.90;;;;;;5068215;28;20429;-84
2023/04/28 09:55:01;;;;;;;10.50;6.93;;;12.90;99.90;;;;;;5069064;28;20043;-84
2023/04/28 09:57:31;;;;;;;9.82;7.95;;;13.00;99.90;;;;;;5083459;28;20046;-83
2023/04/28 09:59:57;;;;;;;12.85;8.27;;;13.00;99.90;;;;;;5086299;28;20050;-83
2023/04/28 10:02:24;;;;;;;9.63;7.93;;;13.50;99.90;;;;;;5086103;28;20036;-83
2023/04/28 10:04:50;;;;;;;11.50;8.27;;;14.00;99.90;;;;;;5073128;28;20455;-84
2023/04/28 10:07:20;;;;;;;13.98;8.23;;;14.30;99.90;;;;;;5070436;28;20028;-84
2023/04/28 10:09:49;;;;;;;11.77;9.40;;;14.70;99.90;;;;;;5085445;28;20106;-84
2023/04/28 10:12:23;;;;;;;9.70;6.72;;;14.70;99.90;;;;;;5069105;28;20032;-85
2023/04/28 10:14:53;;;;;;;10.15;7.35;;;14.30;99.90;;;;;;5070391;28;20040;-85
2023/04/28 10:17:21;;;;;;;10.00;7.85;;;13.60;99.90;;;;;;5063335;28;20115;-84
2023/04/28 10:19:52;;;;;;;9.45;7.15;;;13.50;99.90;;;;;;5073540;28;20039;-77
2023/04/28 10:22:51;;;;;;;13.25;8.50;;;14.20;99.90;;;;;;5062677;28;20110;-80
2023/04/28 10:25:34;;;;;;;9.57;7.50;;;14.00;99.90;;;;;;5074540;28;20214;-81
2023/04/28 10:28:05;;;;;;;10.07;8.07;;;14.00;99.90;;;;;;5078113;28;20040;-79
2023/04/28 10:30:30;;;;;;;10.57;8.07;;;13.90;99.90;;;;;;5082630;28;20039;-83
2023/04/28 10:33:14;;;;;;;12.48;8.95;;;14.00;99.90;;;;;;5069689;28;20043;-79
2023/04/28 10:35:46;;;;;;;10.60;8.33;;;14.40;99.90;;;;;;5065067;28;20043;-81
2023/04/28 10:38:22;;;;;;;12.93;8.95;;;14.20;99.90;;;;;;5058587;28;20033;-77
2023/04/28 10:40:50;;;;;;;8.85;6.80;;;14.10;99.90;;;;;;5064113;28;20043;-81
2023/04/28 10:43:27;;;;;;;8.27;6.82;;;14.20;99.90;;;;;;5087348;28;20072;-81
2023/04/28 10:45:56;;;;;;;11.70;6.93;;;14.20;99.90;;;;;;5069394;28;20419;-79
2023/04/28 10:48:22;;;;;;;12.60;8.38;;;14.40;99.90;;;;;;5068157;28;20539;-81
2023/04/28 10:51:21;;;;;;;11.63;8.43;;;14.50;99.90;;;;;;5088915;28;20554;-79
2023/04/28 10:53:47;;;;;;;10.30;8.40;;;14.40;99.90;;;;;;5082502;28;20090;-79
2023/04/28 10:56:26;;;;;;;11.82;9.32;;;14.50;99.90;;;;;;5072802;28;20072;-81
2023/04/28 10:58:53;;;;;;;11.10;8.35;;;14.40;99.90;;;;;;5085174;28;20039;-80
2023/04/28 11:01:24;;;;;;;9.95;8.95;;;14.40;99.90;;;;;;5072817;28;20024;-79
2023/04/28 11:04:06;;;;;;;10.70;8.88;;;14.40;99.90;;;;;;5102954;28;20200;-78
2023/04/28 11:06:38;;;;;;;12.63;9.70;;;14.30;99.90;;;;;;5072153;28;20039;-80
2023/04/28 11:09:13;;;;;;;14.13;8.32;;;14.20;99.90;;;;;;5065640;28;20091;-79
2023/04/28 11:11:59;;;;;;;11.48;9.10;;;14.10;99.90;;;;;;5085231;28;20044;-80
2023/04/28 11:14:25;;;;;;;10.18;8.63;;;14.10;99.90;;;;;;5061662;28;20059;-79
2023/04/28 11:17:02;;;;;;;10.98;9.15;;;14.00;99.90;;;;;;5079745;28;20128;-77
2023/04/28 11:19:33;;;;;;;11.85;9.13;;;14.00;99.90;;;;;;5058079;28;20594;-76
2023/04/28 11:22:08;;;;;;;11.32;9.32;;;14.20;99.90;;;;;;5080573;28;20050;-79
2023/04/28 11:24:34;;;;;;;15.10;9.75;;;14.10;99.90;;;;;;5089639;28;20071;-80
2023/04/28 11:27:01;;;;;;;10.60;9.27;;;14.10;99.90;;;;;;5066636;28;20091;-81
2023/04/28 11:29:36;;;;;;;15.63;9.75;;;13.80;99.90;;;;;;5079169;28;20082;-80
2023/04/28 11:32:03;;;;;;;12.95;9.23;;;13.90;99.90;;;;;;5084481;28;20075;-80
2023/04/28 11:34:29;;;;;;;10.57;7.78;;;13.70;99.90;;;;;;5071499;28;20042;-81
2023/04/28 11:36:55;;;;;;;10.77;9.38;;;13.80;99.90;;;;;;5064101;28;20031;-78
2023/04/28 11:39:34;;;;;;;12.05;10.45;;;13.70;99.90;;;;;;5072370;28;20067;-79
2023/04/28 11:42:09;;;;;;;11.90;9.73;;;13.80;99.90;;;;;;5073178;28;20155;-81
2023/04/28 11:44:35;;;;;;;14.30;10.48;;;13.90;99.90;;;;;;5069654;28;20036;-77
2023/04/28 11:47:04;;;;;;;13.90;10.35;;;13.90;99.90;;;;;;5070644;28;20393;-81
2023/04/28 11:49:32;;;;;;;13.82;10.82;;;13.80;99.90;;;;;;5066496;28;20044;-78
2023/04/28 11:52:08;;;;;;;13.40;10.55;;;13.50;99.90;;;;;;5057639;28;20461;-80
2023/04/28 11:54:34;;;;;;;12.35;10.13;;;13.90;99.90;;;;;;5090393;28;20043;-79
2023/04/28 11:57:03;;;;;;;15.50;11.30;;;13.60;99.90;;;;;;5055827;28;20048;-83
2023/04/28 11:59:32;;;;;;;12.85;10.13;;;13.80;99.90;;;;;;5065056;28;20040;-78
2023/04/28 12:02:02;;;;;;;10.38;8.35;;;13.70;99.90;;;;;;5083391;28;20464;-78
2023/04/28 12:04:28;;;;;;;12.95;10.73;;;14.20;99.90;;;;;;5096990;27;20043;-77
2023/04/28 12:07:03;;;;;;;12.50;8.73;;;14.10;99.90;;;;;;5070947;28;20062;-81
2023/04/28 12:09:30;;;;;;;14.30;10.70;;;13.90;99.90;;;;;;5071242;28;20043;-81
2023/04/28 12:12:06;;;;;;;14.07;9.27;;;14.10;99.90;;;;;;5081884;28;20040;-76
2023/04/28 12:14:52;;;;;;;13.55;10.82;;;14.00;99.90;;;;;;5072447;28;20082;-80
2023/04/28 12:17:26;;;;;;;13.05;10.10;;;14.30;99.90;;;;;;5071595;28;20395;-78
2023/04/28 12:19:56;;;;;;;12.55;10.40;;;14.50;99.90;;;;;;5069754;28;20054;-78
2023/04/28 12:22:23;;;;;;;12.20;9.13;;;14.60;99.90;;;;;;5062858;28;20043;-79
2023/04/28 12:25:04;;;;;;;13.05;9.55;;;14.30;99.90;;;;;;5066584;28;20043;-81
2023/04/28 12:27:31;;;;;;;13.13;11.15;;;14.40;99.90;;;;;;5066916;28;20141;-76
2023/04/28 12:29:57;;;;;;;13.73;10.50;;;14.10;99.90;;;;;;5033643;28;20037;-82
2023/04/28 12:32:40;;;;;;;15.77;11.13;;;14.10;99.90;;;;;;5045919;28;20071;-77
2023/04/28 12:35:06;;;;;;;12.68;9.20;;;14.20;99.90;;;;;;5061233;28;20669;-77
2023/04/28 12:37:32;;;;;;;13.75;10.00;;;14.10;99.90;;;;;;5054796;28;20085;-81
2023/04/28 12:39:58;;;;;;;14.40;9.93;;;14.60;99.90;;;;;;5031254;28;20358;-81
2023/04/28 12:42:24;;;;;;;14.13;10.52;;;14.60;99.90;;;;;;5030642;28;20106;-78
2023/04/28 12:44:49;;;;;;;13.50;10.45;;;14.40;99.90;;;;;;5029659;28;20504;-82